Time;durP1;ratioP1;P1;durP2;ratioP2;P2;SDS_P1;SDS_P2;PMS_P1;PMS_P2;Temp;Humidity;BMP_temperature;BMP_pressure;BME280_temperature;BME280_humidity;BME280_pressure;Samples;Min_cycle;Max_cycle;Signal;HPM_P1;HPM_P2
2023/09/07 00:02:19;;;;;;;3.08;1.92;;;;;;;19.38;60.79;100712.94;10297735;28;20045;-60
2023/09/07 00:07:39;;;;;;;3.97;1.63;;;;;;;19.34;60.69;100712.56;10294855;28;20460;-61
2023/09/07 00:12:40;;;;;;;5.07;2.33;;;;;;;19.30;61.02;100716.78;10295804;28;20073;-59
2023/09/07 00:17:42;;;;;;;5.35;2.45;;;;;;;19.29;60.95;100704.19;10295461;28;20038;-60
2023/09/07 00:22:43;;;;;;;2.80;1.80;;;;;;;19.29;60.81;100706.09;10293447;28;20046;-59
2023/09/07 00:27:44;;;;;;;5.50;2.92;;;;;;;19.19;61.36;100712.91;10293647;28;20120;-62
2023/09/07 00:32:46;;;;;;;5.10;2.22;;;;;;;19.16;61.19;100702.44;10300657;28;20065;-60
2023/09/07 00:37:47;;;;;;;6.32;2.53;;;;;;;19.14;61.29;100707.28;10302869;28;20038;-65
2023/09/07 00:42:49;;;;;;;3.28;1.88;;;;;;;19.03;61.49;100702.56;10297208;28;20050;-64
2023/09/07 00:47:50;;;;;;;5.25;2.80;;;;;;;18.98;61.71;100696.97;10297616;28;20038;-63
2023/09/07 00:52:52;;;;;;;4.13;1.95;;;;;;;18.95;61.62;100705.56;10301427;28;20510;-64
2023/09/07 00:57:55;;;;;;;3.40;2.00;;;;;;;18.95;61.59;100703.69;10295545;28;20047;-65
2023/09/07 01:02:56;;;;;;;3.22;2.10;;;;;;;18.93;61.45;100694.91;10295920;28;20523;-60
2023/09/07 01:08:07;;;;;;;3.88;2.53;;;;;;;18.87;61.67;100686.78;10295369;28;20035;-61
2023/09/07 01:13:09;;;;;;;3.15;2.28;;;;;;;18.77;61.86;100679.91;10297027;28;20046;-61
2023/09/07 01:18:11;;;;;;;3.88;1.95;;;;;;;18.72;61.89;100678.91;10306529;28;20610;-61
2023/09/07 01:23:26;;;;;;;3.60;2.40;;;;;;;18.59;62.23;100682.56;10303218;28;20045;-61
2023/09/07 01:28:27;;;;;;;2.63;2.42;;;;;;;18.49;62.57;100676.78;10306306;28;20499;-61
2023/09/07 01:33:29;;;;;;;6.40;3.10;;;;;;;18.50;62.47;100683.88;10297831;28;20492;-61
2023/09/07 01:38:31;;;;;;;8.40;2.25;;;;;;;18.48;62.52;100678.66;10301377;28;20053;-60
2023/09/07 01:43:33;;;;;;;5.03;2.67;;;;;;;18.46;62.47;100674.50;10307691;28;20372;-61
2023/09/07 01:48:35;;;;;;;3.30;2.00;;;;;;;18.41;62.55;100678.72;10307671;28;20514;-61
2023/09/07 01:53:36;;;;;;;3.40;2.30;;;;;;;18.39;62.54;100677.28;10305750;28;20060;-62
2023/09/07 01:58:37;;;;;;;4.93;2.63;;;;;;;18.30;62.78;100687.56;10306008;28;20415;-61
2023/09/07 02:03:39;;;;;;;4.43;2.30;;;;;;;18.28;62.77;100686.97;10301667;28;20134;-62
2023/09/07 02:08:40;;;;;;;5.43;3.22;;;;;;;18.23;63.02;100686.78;10303561;28;20043;-61
2023/09/07 02:13:42;;;;;;;8.48;2.70;;;;;;;18.15;63.18;100687.88;10303401;28;20053;-61
2023/09/07 02:18:45;;;;;;;5.55;2.83;;;;;;;18.07;63.26;100696.31;10308742;28;20050;-61
2023/09/07 02:23:47;;;;;;;5.47;2.63;;;;;;;17.98;63.73;100697.59;10306538;28;20096;-61
2023/09/07 02:28:48;;;;;;;3.55;2.75;;;;;;;17.99;63.77;100691.09;10304647;28;20447;-61
2023/09/07 02:33:50;;;;;;;4.65;2.72;;;;;;;17.93;63.74;100687.38;10303439;28;20054;-61
2023/09/07 02:38:51;;;;;;;7.22;3.35;;;;;;;17.89;63.88;100685.28;10297489;28;20054;-62
2023/09/07 02:43:53;;;;;;;6.18;2.95;;;;;;;17.79;64.15;100689.28;10298493;28;20419;-62
2023/09/07 02:48:57;;;;;;;5.47;3.22;;;;;;;17.68;64.67;100691.84;10304358;28;20046;-62
2023/09/07 02:53:59;;;;;;;9.65;3.50;;;;;;;17.68;64.79;100689.94;10304796;28;20116;-61
2023/09/07 02:59:00;;;;;;;6.53;3.85;;;;;;;17.67;64.76;100684.72;10303577;28;20049;-62
2023/09/07 03:04:03;;;;;;;6.10;3.30;;;;;;;17.64;64.92;100688.69;10293787;28;20043;-61
2023/09/07 03:09:08;;;;;;;4.97;3.42;;;;;;;17.55;65.08;100687.25;10300562;28;20073;-60
2023/09/07 03:14:10;;;;;;;7.47;3.22;;;;;;;17.45;65.31;100682.25;10300344;28;20137;-60
2023/09/07 03:19:11;;;;;;;9.13;2.95;;;;;;;17.40;65.10;100679.38;10308009;28;20050;-61
2023/09/07 03:24:15;;;;;;;5.72;3.72;;;;;;;17.37;65.40;100677.88;10304171;28;20042;-61
2023/09/07 03:29:16;;;;;;;6.57;3.90;;;;;;;17.35;65.39;100674.56;10303155;28;20081;-60
2023/09/07 03:34:19;;;;;;;5.00;3.15;;;;;;;17.27;65.62;100684.81;10304241;28;20050;-60
2023/09/07 03:39:22;;;;;;;3.42;2.35;;;;;;;17.30;65.52;100678.94;10299336;28;20046;-61
2023/09/07 03:44:23;;;;;;;5.57;3.30;;;;;;;17.30;65.50;100687.97;10300621;28;20051;-61
2023/09/07 03:49:25;;;;;;;4.28;3.35;;;;;;;17.27;65.75;100691.09;10283501;28;20042;-61
2023/09/07 03:54:26;;;;;;;4.97;3.35;;;;;;;17.21;65.55;100697.38;10298405;28;20551;-60
2023/09/07 03:59:29;;;;;;;4.22;2.67;;;;;;;17.05;65.94;100695.94;10299658;28;20496;-60
2023/09/07 04:04:31;;;;;;;9.23;3.45;;;;;;;16.99;66.51;100696.78;10305444;28;20050;-61
2023/09/07 04:09:32;;;;;;;5.80;3.33;;;;;;;16.93;66.27;100705.75;10301057;28;20101;-61
2023/09/07 04:14:34;;;;;;;5.88;3.65;;;;;;;16.87;66.59;100698.44;10298351;28;20073;-61
2023/09/07 04:19:36;;;;;;;6.00;3.53;;;;;;;16.88;66.57;100702.81;10291896;28;20440;-61
2023/09/07 04:24:37;;;;;;;7.18;3.33;;;;;;;16.87;66.62;100704.72;10298057;28;20410;-61
2023/09/07 04:29:39;;;;;;;8.02;3.90;;;;;;;16.90;66.61;100709.72;10304249;28;20046;-61
2023/09/07 04:34:40;;;;;;;6.28;3.50;;;;;;;16.90;66.33;100707.00;10297491;28;20050;-61
2023/09/07 04:39:42;;;;;;;5.93;3.60;;;;;;;16.87;66.49;100709.31;10298147;28;20046;-61
2023/09/07 04:44:43;;;;;;;6.93;4.15;;;;;;;16.82;66.67;100716.22;10295159;28;20130;-61
2023/09/07 04:49:51;;;;;;;7.65;3.72;;;;;;;16.85;66.53;100720.38;10305086;28;20046;-70
2023/09/07 04:54:52;;;;;;;6.03;3.38;;;;;;;16.90;66.44;100725.16;10310679;28;20097;-69
2023/09/07 04:59:54;;;;;;;7.43;3.83;;;;;;;16.92;66.18;100720.38;10297119;28;20058;-69
2023/09/07 05:04:55;;;;;;;6.25;3.70;;;;;;;16.96;66.42;100721.63;10302329;28;20050;-69
2023/09/07 05:09:56;;;;;;;6.35;4.20;;;;;;;17.00;66.34;100721.00;10302567;28;20053;-69
2023/09/07 05:14:59;;;;;;;4.43;3.55;;;;;;;17.02;66.82;100734.34;10307840;28;20054;-67
2023/09/07 05:20:01;;;;;;;7.60;3.47;;;;;;;17.05;66.30;100736.66;10304289;28;20043;-67
2023/09/07 05:25:03;;;;;;;6.68;4.13;;;;;;;17.09;66.40;100743.34;10304915;28;20062;-67
2023/09/07 05:30:06;;;;;;;5.13;3.65;;;;;;;17.15;66.43;100742.50;10305889;28;20070;-68
2023/09/07 05:35:08;;;;;;;7.53;3.53;;;;;;;17.27;66.24;100750.03;10303009;28;20061;-68
2023/09/07 05:40:09;;;;;;;6.32;3.35;;;;;;;17.36;66.21;100738.75;10301145;28;20054;-68
2023/09/07 05:45:11;;;;;;;6.60;4.03;;;;;;;17.43;66.23;100744.97;10302374;28;20050;-68
2023/09/07 05:50:12;;;;;;;6.75;3.50;;;;;;;17.57;65.93;100743.06;10304002;28;20054;-68
2023/09/07 05:55:14;;;;;;;11.50;4.05;;;;;;;17.70;65.66;100746.84;10293621;28;20046;-67
2023/09/07 06:00:16;;;;;;;5.55;3.72;;;;;;;17.82;65.92;100745.13;10284532;28;20042;-68
2023/09/07 06:05:18;;;;;;;7.53;3.78;;;;;;;17.97;65.95;100736.72;10298643;28;20431;-68
2023/09/07 06:10:20;;;;;;;4.57;2.60;;;;;;;18.16;65.79;100743.97;10290042;28;21011;-68
2023/09/07 06:15:21;;;;;;;6.15;3.55;;;;;;;18.33;65.84;100748.91;10297709;28;20383;-68
2023/09/07 06:20:23;;;;;;;10.35;3.67;;;;;;;18.52;65.62;100744.41;10300115;28;20519;-69
2023/09/07 06:25:24;;;;;;;6.80;3.35;;;;;;;18.65;65.60;100741.59;10293906;28;20443;-68
2023/09/07 06:30:28;;;;;;;6.35;3.17;;;;;;;18.82;65.46;100742.78;10301453;28;20045;-67
2023/09/07 06:35:29;;;;;;;7.80;3.50;;;;;;;19.01;65.46;100742.81;10296059;28;20054;-67
2023/09/07 06:40:31;;;;;;;5.90;2.88;;;;;;;19.21;65.42;100759.00;10291221;28;20070;-68
2023/09/07 06:45:35;;;;;;;4.75;3.25;;;;;;;19.47;65.17;100757.94;10297410;28;20518;-67
2023/09/07 06:50:37;;;;;;;6.75;3.00;;;;;;;19.76;64.39;100763.75;10299575;28;20042;-67
2023/09/07 06:55:38;;;;;;;4.60;3.20;;;;;;;20.08;64.08;100761.69;10304524;28;20412;-68
2023/09/07 07:00:40;;;;;;;2.95;2.28;;;;;;;20.38;63.87;100750.81;10304457;28;20054;-64
2023/09/07 07:05:42;;;;;;;5.65;2.40;;;;;;;20.65;62.70;100763.28;10310313;28;20031;-64
2023/09/07 07:10:43;;;;;;;4.55;2.22;;;;;;;20.93;61.99;100763.50;10294654;28;20067;-64
2023/09/07 07:15:45;;;;;;;5.25;1.70;;;;;;;21.23;61.52;100768.06;10309915;28;20050;-63
2023/09/07 07:21:04;;;;;;;3.80;1.83;;;;;;;21.50;60.40;100773.06;10313332;28;20034;-64
2023/09/07 07:26:06;;;;;;;2.53;2.03;;;;;;;21.76;59.48;100772.59;10295873;28;20057;-63
2023/09/07 07:31:09;;;;;;;3.72;2.05;;;;;;;22.03;58.61;100758.38;10288787;28;20514;-62
2023/09/07 07:36:10;;;;;;;2.22;1.63;;;;;;;22.30;57.95;100753.19;10291968;28;20055;-62
2023/09/07 07:41:12;;;;;;;2.35;2.00;;;;;;;22.51;57.41;100762.66;10295442;28;20050;-65
2023/09/07 07:46:15;;;;;;;2.58;1.65;;;;;;;22.68;56.95;100759.94;10287851;28;20523;-64
2023/09/07 07:51:17;;;;;;;4.85;2.20;;;;;;;22.87;56.20;100766.03;10294933;28;20069;-63
2023/09/07 07:56:19;;;;;;;4.07;2.03;;;;;;;23.06;55.65;100765.81;10287300;28;20400;-63
2023/09/07 08:01:20;;;;;;;2.25;1.30;;;;;;;23.21;55.10;100766.06;10290017;28;20602;-63
2023/09/07 08:06:22;;;;;;;3.25;1.70;;;;;;;23.40;54.46;100763.91;10295455;28;20046;-63
2023/09/07 08:11:25;;;;;;;2.55;1.77;;;;;;;23.59;54.25;100758.94;10288318;28;20051;-64
2023/09/07 08:16:27;;;;;;;3.40;1.60;;;;;;;23.76;53.58;100762.50;10292876;28;20043;-63
2023/09/07 08:21:28;;;;;;;3.03;1.77;;;;;;;23.84;53.40;100760.44;10296905;28;20136;-63
2023/09/07 08:26:30;;;;;;;2.42;1.85;;;;;;;24.01;52.80;100760.34;10302023;28;20042;-64
2023/09/07 08:31:35;;;;;;;3.15;1.55;;;;;;;24.14;52.38;100751.75;10297837;28;20065;-62
2023/09/07 08:36:37;;;;;;;5.33;2.07;;;;;;;24.27;51.98;100753.25;10300138;28;20134;-63
2023/09/07 08:41:44;;;;;;;4.10;1.90;;;;;;;24.46;51.79;100756.47;10294967;28;20054;-64
2023/09/07 08:47:03;;;;;;;4.15;2.28;;;;;;;24.58;51.25;100753.63;10292862;28;20143;-65
2023/09/07 08:52:06;;;;;;;3.30;2.15;;;;;;;24.64;51.29;100753.41;10292435;28;20054;-64
2023/09/07 08:57:08;;;;;;;4.53;1.60;;;;;;;24.91;50.50;100752.56;10300003;28;20041;-65
2023/09/07 09:02:10;;;;;;;3.70;1.63;;;;;;;25.11;50.29;100758.22;10298860;28;20058;-65
2023/09/07 09:07:13;;;;;;;1.80;1.50;;;;;;;25.24;50.34;100754.22;10295960;28;20055;-72
2023/09/07 09:12:14;;;;;;;4.88;2.33;;;;;;;25.41;49.51;100751.31;10298182;28;20055;-65
2023/09/07 09:17:16;;;;;;;2.95;1.95;;;;;;;25.50;49.24;100752.47;10300866;28;20423;-64
2023/09/07 09:22:18;;;;;;;6.15;1.48;;;;;;;25.70;49.06;100753.69;10290392;28;20058;-64
2023/09/07 09:27:20;;;;;;;4.53;1.98;;;;;;;25.88;48.86;100750.47;10288562;28;20046;-65
2023/09/07 09:32:22;;;;;;;3.03;1.88;;;;;;;26.09;48.41;100734.88;10292082;28;20053;-63
2023/09/07 09:37:24;;;;;;;2.22;2.00;;;;;;;26.31;48.11;100729.16;10294023;28;20050;-64
2023/09/07 09:42:27;;;;;;;2.15;1.95;;;;;;;26.52;47.62;100723.66;10296394;28;20058;-63
2023/09/07 09:47:31;;;;;;;2.17;1.65;;;;;;;26.63;47.46;100713.53;10299580;28;20110;-64
2023/09/07 09:52:34;;;;;;;2.92;1.52;;;;;;;26.89;46.98;100719.88;10304296;28;20084;-63
2023/09/07 09:57:36;;;;;;;2.53;1.48;;;;;;;27.17;46.57;100707.44;10298683;28;20169;-66
2023/09/07 10:02:39;;;;;;;3.70;1.50;;;;;;;27.36;46.06;100701.38;10306967;28;20053;-66
2023/09/07 10:07:43;;;;;;;3.55;1.63;;;;;;;27.64;45.50;100692.44;10309599;28;20566;-66
2023/09/07 10:12:45;;;;;;;4.88;1.42;;;;;;;27.94;44.46;100696.19;10307056;28;20066;-66
2023/09/07 10:17:49;;;;;;;1.75;1.35;;;;;;;28.19;43.39;100692.47;10301061;28;20046;-65
2023/09/07 10:23:02;;;;;;;2.10;1.30;;;;;;;28.49;42.81;100677.59;10299469;28;20046;-66
2023/09/07 10:28:03;;;;;;;2.13;1.40;;;;;;;28.92;41.62;100679.78;10304984;28;20137;-65
2023/09/07 10:33:05;;;;;;;3.72;1.30;;;;;;;29.41;40.99;100683.47;10299721;28;20053;-66
2023/09/07 10:38:07;;;;;;;2.00;1.20;;;;;;;29.92;39.56;100668.16;10300308;28;20543;-67
2023/09/07 10:43:08;;;;;;;2.40;1.25;;;;;;;30.49;38.89;100669.03;10310113;28;20061;-66
2023/09/07 10:48:11;;;;;;;3.42;1.23;;;;;;;31.05;37.81;100666.44;10292402;28;20404;-65
2023/09/07 10:53:14;;;;;;;2.13;1.23;;;;;;;31.46;36.83;100660.09;10303014;28;20784;-66
2023/09/07 10:58:27;;;;;;;1.60;1.50;;;;;;;31.86;36.11;100652.84;10299447;28;20058;-65
2023/09/07 11:03:31;;;;;;;3.25;1.33;;;;;;;32.18;35.32;100651.84;10302152;28;20587;-60
2023/09/07 11:08:33;;;;;;;1.80;1.17;;;;;;;32.59;35.09;100650.09;10303328;28;20130;-60
2023/09/07 11:13:35;;;;;;;1.85;1.27;;;;;;;32.45;35.17;100641.78;10302171;28;20107;-60
2023/09/07 11:18:37;;;;;;;3.67;1.13;;;;;;;32.53;34.19;100652.13;10301283;28;20134;-61
2023/09/07 11:23:39;;;;;;;1.77;1.17;;;;;;;32.78;34.44;100641.50;10298625;28;20087;-63
2023/09/07 11:28:40;;;;;;;1.92;1.42;;;;;;;32.86;33.33;100637.13;10296918;28;20142;-63
2023/09/07 11:33:42;;;;;;;1.25;1.05;;;;;;;33.04;33.28;100644.44;10295674;28;20042;-63
2023/09/07 11:38:44;;;;;;;3.63;1.10;;;;;;;33.25;32.99;100644.72;10301508;28;20046;-65
2023/09/07 11:43:46;;;;;;;2.97;1.20;;;;;;;33.35;32.35;100638.03;10304064;28;20082;-63
2023/09/07 11:48:47;;;;;;;2.00;1.48;;;;;;;33.55;31.10;100640.22;10302477;28;20051;-63
2023/09/07 11:53:49;;;;;;;3.15;1.27;;;;;;;33.78;30.76;100635.38;10294455;28;20122;-62
2023/09/07 11:58:50;;;;;;;4.20;1.17;;;;;;;34.05;30.36;100635.41;10297040;28;20054;-63
2023/09/07 12:03:52;;;;;;;0.95;0.77;;;;;;;34.10;30.29;100629.66;10299677;28;20054;-62
2023/09/07 12:09:06;;;;;;;4.10;1.30;;;;;;;34.10;30.42;100612.91;10302953;28;20138;-63
2023/09/07 12:14:07;;;;;;;1.88;0.82;;;;;;;34.37;30.49;100617.34;10304696;28;20038;-68
2023/09/07 12:19:09;;;;;;;3.13;1.05;;;;;;;34.67;29.12;100612.72;10296236;28;20499;-70
2023/09/07 12:24:12;;;;;;;3.03;1.02;;;;;;;34.92;29.23;100607.38;10296587;28;20355;-70
2023/09/07 12:29:13;;;;;;;2.33;1.02;;;;;;;35.15;29.04;100610.72;10295628;28;20042;-70
2023/09/07 12:34:15;;;;;;;3.25;1.00;;;;;;;35.39;28.56;100598.13;10298944;28;20054;-70
2023/09/07 12:39:17;;;;;;;2.38;1.10;;;;;;;35.92;27.57;100600.28;10282299;28;20054;-65
2023/09/07 12:44:20;;;;;;;3.38;1.10;;;;;;;36.11;26.93;100596.16;10294261;28;20148;-69
2023/09/07 12:49:22;;;;;;;3.42;0.90;;;;;;;36.12;26.88;100587.41;10292490;28;20070;-69
2023/09/07 12:54:23;;;;;;;2.70;1.05;;;;;;;36.18;27.24;100590.00;10302258;28;20038;-70
2023/09/07 12:59:25;;;;;;;2.95;1.02;;;;;;;36.42;27.02;100586.50;10301776;28;20038;-69
2023/09/07 13:04:26;;;;;;;3.35;0.93;;;;;;;36.45;26.81;100586.59;10296422;28;20046;-69
2023/09/07 13:09:28;;;;;;;2.42;1.08;;;;;;;36.40;27.01;100591.63;10302644;28;20049;-70
2023/09/07 13:14:29;;;;;;;1.40;1.08;;;;;;;36.57;26.07;100576.59;10307809;28;20035;-72
2023/09/07 13:19:34;;;;;;;2.35;1.10;;;;;;;36.56;26.66;100573.00;10310221;28;20529;-71
2023/09/07 13:24:36;;;;;;;5.05;1.20;;;;;;;36.67;25.78;100562.19;10305908;28;20050;-69
2023/09/07 13:29:38;;;;;;;3.05;1.02;;;;;;;36.86;25.67;100556.03;10311349;28;20046;-64
2023/09/07 13:34:39;;;;;;;4.50;1.30;;;;;;;36.64;26.20;100554.47;10306028;28;20041;-65
2023/09/07 13:39:40;;;;;;;2.75;1.00;;;;;;;36.35;26.65;100547.03;10304267;28;20051;-65
2023/09/07 13:44:45;;;;;;;4.85;1.15;;;;;;;36.14;26.60;100540.31;10306479;28;20046;-66
2023/09/07 13:49:46;;;;;;;4.32;0.98;;;;;;;36.06;26.76;100535.63;10305015;28;20050;-65
2023/09/07 13:54:48;;;;;;;2.22;1.00;;;;;;;36.12;26.73;100539.84;10309464;28;20140;-66
2023/09/07 13:59:49;;;;;;;1.80;1.20;;;;;;;36.20;26.50;100535.34;10309761;28;20408;-66
2023/09/07 14:04:51;;;;;;;3.92;1.30;;;;;;;36.21;26.51;100536.16;10306162;28;20054;-66
2023/09/07 14:09:54;;;;;;;1.73;0.95;;;;;;;36.34;26.50;100523.81;10308645;28;20054;-65
2023/09/07 14:14:55;;;;;;;5.47;1.30;;;;;;;36.47;26.21;100522.66;10305056;28;20051;-66
2023/09/07 14:19:56;;;;;;;2.22;1.05;;;;;;;36.78;26.28;100526.94;10289249;28;20120;-65
2023/09/07 14:24:58;;;;;;;3.75;1.27;;;;;;;37.02;26.33;100525.31;10310752;28;20065;-65
2023/09/07 14:30:00;;;;;;;4.90;1.25;;;;;;;37.21;26.19;100525.56;10285529;28;20057;-64
2023/09/07 14:35:01;;;;;;;2.85;1.20;;;;;;;37.53;25.55;100516.50;10303622;28;20050;-64
2023/09/07 14:40:03;;;;;;;1.60;0.90;;;;;;;37.63;25.52;100519.63;10300844;28;20039;-64
2023/09/07 14:45:05;;;;;;;1.25;1.00;;;;;;;37.99;25.20;100509.41;10300245;28;20042;-64
2023/09/07 14:50:07;;;;;;;4.75;1.00;;;;;;;39.10;23.78;100505.88;10300179;28;20042;-65
2023/09/07 14:55:09;;;;;;;2.53;0.90;;;;;;;39.90;23.02;100506.44;10313386;28;20046;-63
2023/09/07 15:00:11;;;;;;;1.98;1.23;;;;;;;39.73;22.90;100510.47;10302320;28;20050;-64
2023/09/07 15:05:13;;;;;;;1.52;1.20;;;;;;;38.76;23.63;100502.63;10303788;28;21352;-65
2023/09/07 15:10:14;;;;;;;2.42;0.90;;;;;;;37.81;24.47;100488.47;10300791;28;20057;-65
2023/09/07 15:15:16;;;;;;;2.97;1.33;;;;;;;37.44;25.25;100494.16;10297188;28;20399;-64
2023/09/07 15:20:17;;;;;;;2.67;1.23;;;;;;;37.18;25.24;100487.00;10297010;28;20513;-64
2023/09/07 15:25:19;;;;;;;3.45;1.20;;;;;;;36.94;25.30;100487.81;10302243;28;20109;-65
2023/09/07 15:30:22;;;;;;;1.30;1.13;;;;;;;36.71;25.80;100484.66;10301279;28;20039;-63
2023/09/07 15:35:24;;;;;;;2.35;1.30;;;;;;;36.57;25.95;100484.97;10301773;28;20042;-63
2023/09/07 15:40:25;;;;;;;2.45;1.10;;;;;;;36.35;26.06;100486.25;10298222;28;20391;-64
2023/09/07 15:45:27;;;;;;;1.25;1.00;;;;;;;36.39;26.12;100489.16;10299049;28;20092;-61
2023/09/07 15:50:28;;;;;;;1.65;1.00;;;;;;;36.39;26.00;100489.97;10298743;28;20046;-61
2023/09/07 15:55:30;;;;;;;3.42;1.20;;;;;;;36.24;25.62;100485.03;10308039;28;20049;-59
2023/09/07 16:00:33;;;;;;;2.20;1.15;;;;;;;36.19;25.94;100488.09;10304998;28;20057;-63
2023/09/07 16:05:34;;;;;;;1.30;0.93;;;;;;;36.00;26.05;100492.22;10302837;28;20411;-63
2023/09/07 16:10:36;;;;;;;2.00;1.00;;;;;;;35.95;26.34;100492.41;10302695;28;20113;-60
2023/09/07 16:15:37;;;;;;;3.83;1.20;;;;;;;35.99;26.08;100498.97;10301948;28;20050;-60
2023/09/07 16:20:39;;;;;;;4.55;1.20;;;;;;;36.01;26.67;100481.84;10299867;28;20623;-62
2023/09/07 16:25:40;;;;;;;2.13;1.30;;;;;;;36.02;25.91;100487.09;10302706;28;20173;-61
2023/09/07 16:30:42;;;;;;;3.42;1.20;;;;;;;36.07;26.60;100488.84;10300874;28;20074;-60
2023/09/07 16:35:43;;;;;;;3.92;0.82;;;;;;;36.04;26.05;100486.72;10300873;28;20153;-60
2023/09/07 16:40:45;;;;;;;1.20;1.10;;;;;;;36.20;25.91;100481.31;10294680;28;20057;-60
2023/09/07 16:46:02;;;;;;;1.20;0.95;;;;;;;36.27;25.72;100482.38;10306911;28;20042;-61
2023/09/07 16:51:05;;;;;;;4.55;1.10;;;;;;;36.23;25.86;100491.81;10308060;28;20053;-63
2023/09/07 16:56:07;;;;;;;4.55;1.70;;;;;;;35.96;26.16;100490.44;10308540;28;20409;-60
2023/09/07 17:01:09;;;;;;;5.40;0.90;;;;;;;35.37;26.83;100506.22;10287210;28;20050;-60
2023/09/07 17:06:11;;;;;;;8.38;1.38;;;;;;;34.81;27.59;100505.53;10304079;28;20561;-59
2023/09/07 17:11:12;;;;;;;9.30;1.45;;;;;;;34.24;27.78;100493.56;10305304;28;20065;-63
2023/09/07 17:16:13;;;;;;;6.88;1.80;;;;;;;33.70;28.77;100495.94;10301763;28;20042;-60
2023/09/07 17:21:15;;;;;;;2.35;1.60;;;;;;;33.21;29.21;100507.16;10307453;28;20061;-60
2023/09/07 17:26:16;;;;;;;5.72;1.25;;;;;;;32.73;30.07;100500.47;10312195;28;20049;-61
2023/09/07 17:31:19;;;;;;;5.07;2.13;;;;;;;32.29;30.39;100502.19;10306610;28;20089;-60
2023/09/07 17:36:22;;;;;;;4.57;1.85;;;;;;;31.82;31.26;100496.13;10307129;28;20526;-59
2023/09/07 17:41:32;;;;;;;3.13;1.70;;;;;;;31.41;31.80;100485.94;10311403;28;20046;-58
2023/09/07 17:46:34;;;;;;;3.55;1.52;;;;;;;31.10;32.68;100496.91;10305715;28;20047;-59
2023/09/07 17:51:35;;;;;;;5.80;1.73;;;;;;;30.76;32.91;100495.34;10306559;28;20046;-60
2023/09/07 17:56:37;;;;;;;1.70;1.40;;;;;;;30.42;33.41;100505.72;10302466;28;20047;-58
2023/09/07 18:01:39;;;;;;;5.55;1.58;;;;;;;30.08;34.26;100503.25;10308808;28;20052;-58
2023/09/07 18:06:40;;;;;;;6.35;2.20;;;;;;;29.73;35.58;100504.66;10301551;28;20102;-64
2023/09/07 18:11:44;;;;;;;4.88;1.52;;;;;;;29.31;36.78;100506.34;10300914;28;20046;-62
2023/09/07 18:16:46;;;;;;;5.68;1.90;;;;;;;28.95;37.67;100509.53;10303198;28;20069;-62
2023/09/07 18:21:47;;;;;;;7.15;1.92;;;;;;;28.62;37.88;100515.72;10305397;28;20077;-61
2023/09/07 18:26:49;;;;;;;5.63;2.05;;;;;;;28.29;38.43;100515.44;10302250;28;20459;-62
2023/09/07 18:31:51;;;;;;;9.20;1.73;;;;;;;27.93;38.99;100516.88;10296072;28;20412;-60
2023/09/07 18:36:52;;;;;;;8.05;1.83;;;;;;;27.52;39.77;100517.13;10303876;28;20054;-61
2023/09/07 18:41:54;;;;;;;3.35;1.02;;;;;;;27.19;40.60;100517.56;10302321;28;20052;-63
2023/09/07 18:46:55;;;;;;;1.75;1.40;;;;;;;27.00;41.25;100524.78;10299425;28;20110;-62
2023/09/07 18:51:57;;;;;;;3.42;1.83;;;;;;;26.82;41.43;100523.47;10298217;28;20050;-63
2023/09/07 18:56:58;;;;;;;3.67;1.75;;;;;;;26.56;42.14;100531.78;10296114;28;20069;-63
2023/09/07 19:02:00;;;;;;;3.58;1.70;;;;;;;26.29;43.09;100523.81;10297853;28;20046;-61
2023/09/07 19:07:02;;;;;;;6.72;2.47;;;;;;;26.15;42.95;100526.31;10297665;28;20954;-62
2023/09/07 19:12:04;;;;;;;3.47;2.47;;;;;;;25.90;44.00;100527.94;10294619;28;20144;-64
2023/09/07 19:17:05;;;;;;;4.30;2.15;;;;;;;25.50;44.91;100523.16;10304482;28;20074;-65
2023/09/07 19:22:07;;;;;;;7.03;2.85;;;;;;;25.35;45.37;100526.69;10289840;28;20046;-65
2023/09/07 19:27:08;;;;;;;5.75;2.40;;;;;;;25.23;46.31;100531.59;10298651;28;20046;-64
2023/09/07 19:32:10;;;;;;;7.80;2.53;;;;;;;25.08;46.13;100524.06;10304710;28;20053;-64
2023/09/07 19:37:12;;;;;;;3.10;2.25;;;;;;;24.89;46.91;100526.47;10284290;28;20049;-60
2023/09/07 19:42:13;;;;;;;6.25;2.30;;;;;;;24.76;47.11;100524.19;10299230;28;20057;-60
2023/09/07 19:47:14;;;;;;;3.75;2.20;;;;;;;24.64;47.47;100540.88;10286546;28;20145;-61
2023/09/07 19:52:16;;;;;;;3.45;2.30;;;;;;;24.52;47.64;100538.34;10299539;28;20046;-61
2023/09/07 19:57:17;;;;;;;3.72;1.92;;;;;;;24.37;48.15;100544.53;10282805;28;20038;-61
2023/09/07 20:02:19;;;;;;;8.95;2.38;;;;;;;24.19;48.35;100537.53;10307217;28;20046;-61
2023/09/07 20:07:20;;;;;;;4.32;2.85;;;;;;;24.03;49.44;100541.22;10299352;28;20047;-61
2023/09/07 20:12:22;;;;;;;6.50;2.38;;;;;;;23.83;49.88;100545.41;10304545;28;20051;-61
2023/09/07 20:17:24;;;;;;;7.40;2.30;;;;;;;23.45;50.37;100543.63;10301397;28;20038;-61
2023/09/07 20:22:27;;;;;;;10.25;2.75;;;;;;;23.09;51.08;100548.69;10300216;28;20065;-61
2023/09/07 20:27:29;;;;;;;4.07;2.38;;;;;;;23.07;50.88;100548.94;10298086;28;20046;-61
2023/09/07 20:32:30;;;;;;;5.18;2.85;;;;;;;22.87;51.69;100554.13;10300251;28;20530;-59
2023/09/07 20:37:32;;;;;;;5.45;2.47;;;;;;;22.87;51.72;100554.94;10298455;28;20043;-59
2023/09/07 20:42:33;;;;;;;4.93;2.67;;;;;;;22.81;51.79;100547.72;10294504;28;20085;-59
2023/09/07 20:47:35;;;;;;;3.83;2.63;;;;;;;22.72;52.14;100557.44;10299470;28;20047;-60
2023/09/07 20:52:36;;;;;;;5.03;2.45;;;;;;;22.62;52.28;100547.16;10296311;28;20497;-60
2023/09/07 20:57:37;;;;;;;3.67;2.80;;;;;;;22.52;52.65;100556.06;10286470;28;20054;-61
2023/09/07 21:02:39;;;;;;;3.33;2.20;;;;;;;22.40;52.76;100552.59;10300293;28;20045;-60
2023/09/07 21:07:40;;;;;;;7.30;2.40;;;;;;;22.29;53.15;100550.75;10298388;28;20124;-59
2023/09/07 21:12:43;;;;;;;3.80;2.70;;;;;;;22.17;53.98;100551.63;10299809;28;20057;-59
2023/09/07 21:17:44;;;;;;;5.88;2.45;;;;;;;22.05;53.98;100556.34;10296548;28;20046;-60
2023/09/07 21:22:46;;;;;;;4.78;2.60;;;;;;;21.95;54.13;100559.72;10296656;28;20042;-59
2023/09/07 21:27:47;;;;;;;4.53;2.97;;;;;;;21.87;54.45;100562.06;10301631;28;20047;-60
2023/09/07 21:32:49;;;;;;;4.25;2.65;;;;;;;21.74;54.48;100558.56;10308728;28;20633;-61
2023/09/07 21:37:50;;;;;;;5.40;2.47;;;;;;;21.66;54.99;100566.31;10304851;28;20094;-58
2023/09/07 21:42:51;;;;;;;5.20;2.85;;;;;;;21.59;55.15;100561.00;10296938;28;20396;-60
2023/09/07 21:47:53;;;;;;;3.65;2.53;;;;;;;21.44;55.21;100564.25;10307005;28;20062;-58
2023/09/07 21:52:54;;;;;;;5.53;2.45;;;;;;;21.38;55.37;100565.19;10298162;28;20138;-58
2023/09/07 21:57:56;;;;;;;5.43;2.97;;;;;;;21.33;55.36;100562.34;10306196;28;20399;-58
2023/09/07 22:02:58;;;;;;;4.68;2.72;;;;;;;21.28;55.65;100563.06;10307668;28;20212;-58
2023/09/07 22:07:59;;;;;;;4.50;2.83;;;;;;;21.18;56.08;100563.69;10307451;28;20047;-60
2023/09/07 22:13:01;;;;;;;3.65;2.80;;;;;;;21.05;56.16;100561.22;10306393;28;20057;-59
2023/09/07 22:18:02;;;;;;;4.70;2.20;;;;;;;20.94;56.13;100562.06;10304937;28;20047;-59
2023/09/07 22:23:04;;;;;;;4.55;2.95;;;;;;;20.89;56.53;100561.94;10309504;28;20054;-60
2023/09/07 22:28:08;;;;;;;5.75;2.70;;;;;;;20.76;56.76;100563.03;10307021;28;20053;-59
2023/09/07 22:33:10;;;;;;;5.05;2.95;;;;;;;20.67;57.17;100557.09;10305167;28;20043;-57
2023/09/07 22:38:12;;;;;;;4.00;2.45;;;;;;;20.61;57.44;100566.22;10305893;28;20051;-58
2023/09/07 22:43:15;;;;;;;4.35;2.75;;;;;;;20.56;57.27;100566.09;10307600;28;20066;-64
2023/09/07 22:48:16;;;;;;;5.95;2.40;;;;;;;20.53;57.59;100563.81;10303909;28;20122;-64
2023/09/07 22:53:21;;;;;;;4.32;3.25;;;;;;;20.47;57.15;100557.41;10307749;28;20050;-64
2023/09/07 22:58:23;;;;;;;4.07;2.63;;;;;;;20.39;57.55;100564.03;10289020;28;20148;-64
2023/09/07 23:03:25;;;;;;;5.70;2.75;;;;;;;20.36;57.61;100572.72;10290992;28;20524;-64
2023/09/07 23:08:31;;;;;;;7.00;3.35;;;;;;;20.31;57.63;100569.84;10303617;28;20049;-64